Terminal Aerodrome Forecast
Issued by NWS

Home | Current Version | Previous Version | Graphics & Text | Print | Product List | Glossary On
Versions: 1 2 3 4 5 6 7 8 9 10 11 12 13 14 15 16 17 18
000
FTUS45 KGGW 191735
TAFGDV
TAF
KGDV 191735Z 1918/2018 16005KT P6SM SCT002 BKN120
      TEMPO 1918/1921 2SM BR BKN003
     FM200200 26004KT 1SM BR BKN002
     FM200600 27005KT 1/2SM FG BKN005
     FM201500 26009KT P6SM SCT005 SCT090=

USA.gov is the U.S. government's official web portal to all federal, state and local government web resources and services.